Terminal Aerodrome Forecast
Issued by NWS

Home | Current Version | Previous Version | Text Only | Print | Product List | Glossary On
Versions: 1 2 3 4 5 6 7 8 9 10 11 12 13 14 15 16 17 18 19 20 21 22 23 24 25 26 27 28 29 30 31 32 33 34 35 36 37 38 39 40 41 42 43 44 45 46 47
000
FTUS43 KGLD 261146
TAFMCK
TAF
KMCK 261146Z 2612/2712 09012KT 3SM BR OVC004
      TEMPO 2613/2617 6SM -DZ BR OVC007
     FM261800 08013G18KT 6SM BR OVC007
     FM262100 08012KT P6SM OVC015
     FM270000 06014KT P6SM BKN030
     FM270600 03008KT P6SM BKN035=

USA.gov is the U.S. government's official web portal to all federal, state and local government web resources and services.